Terminal Aerodrome Forecast
Issued by NWS

Home | Current Version | Previous Version | Graphics & Text | Print | Product List | Glossary On
Versions: 1 2 3 4 5 6 7 8 9 10 11 12 13 14
000
FTUS45 KGGW 271720
TAFOLF
TAF
KOLF 271720Z 2718/2818 27016KT P6SM SCT090
     FM272000 31016KT P6SM BKN090
     FM280200 33009KT P6SM FEW090
     FM281200 28009KT P6SM SCT080
     FM281700 32018G26KT P6SM FEW080=

USA.gov is the U.S. government's official web portal to all federal, state and local government web resources and services.